Time;durP1;ratioP1;P1;durP2;ratioP2;P2;SDS_P1;SDS_P2;PMS_P1;PMS_P2;Temp;Humidity;BMP_temperature;BMP_pressure;BME280_temperature;BME280_humidity;BME280_pressure;Samples;Min_cycle;Max_cycle;Signal;HPM_P1;HPM_P2
2022/01/11 00:00:30;;;;;;;6.28;5.88;;;;;;;0.13;100.00;103027.81;6219959;23;20091;-68
2022/01/11 00:02:56;;;;;;;5.97;5.68;;;;;;;0.11;100.00;103032.97;6247683;23;20004;-67
2022/01/11 00:08:07;;;;;;;4.65;4.32;;;;;;;0.16;100.00;103027.94;6257588;23;20051;-67
2022/01/11 00:10:38;;;;;;;5.37;5.07;;;;;;;0.17;100.00;103025.38;6247277;23;20329;-67
2022/01/11 00:13:04;;;;;;;7.15;6.72;;;;;;;0.10;100.00;103023.38;6247133;23;20011;-67
2022/01/11 00:15:30;;;;;;;7.43;6.82;;;;;;;0.09;100.00;103025.91;6219899;23;20341;-66
2022/01/11 00:17:59;;;;;;;7.50;7.00;;;;;;;0.11;100.00;103024.25;6246760;23;20008;-67
2022/01/11 00:20:27;;;;;;;7.18;6.75;;;;;;;0.11;100.00;103025.13;6246706;23;20004;-67
2022/01/11 00:25:31;;;;;;;4.15;3.85;;;;;;;0.26;100.00;103024.75;6257278;23;20015;-67
2022/01/11 00:27:57;;;;;;;5.18;4.85;;;;;;;0.21;100.00;103029.84;6246868;23;20444;-67
2022/01/11 00:30:24;;;;;;;6.60;6.10;;;;;;;0.21;100.00;103032.44;6246571;23;20036;-67
2022/01/11 00:32:53;;;;;;;5.40;5.10;;;;;;;0.13;100.00;103033.06;6219887;23;20413;-67
2022/01/11 00:35:23;;;;;;;5.47;5.18;;;;;;;0.17;100.00;103030.59;6246992;23;20047;-67
2022/01/11 00:37:49;;;;;;;5.45;5.15;;;;;;;0.23;100.00;103041.25;6247074;23;20085;-67
2022/01/11 00:40:14;;;;;;;5.57;5.22;;;;;;;0.19;100.00;103047.19;6246553;23;20311;-67
2022/01/11 00:42:40;;;;;;;5.13;4.85;;;;;;;0.22;100.00;103049.03;6246827;23;20105;-67
2022/01/11 00:45:10;;;;;;;6.85;6.32;;;;;;;0.28;100.00;103054.47;6220442;23;20000;-67
2022/01/11 00:47:35;;;;;;;5.82;5.43;;;;;;;0.38;100.00;103043.50;6249303;23;20035;-67
2022/01/11 00:50:01;;;;;;;4.93;4.63;;;;;;;0.47;100.00;103051.63;6221601;23;20015;-67
2022/01/11 00:52:26;;;;;;;5.13;4.82;;;;;;;0.38;100.00;103041.75;6248380;23;20126;-67
2022/01/11 00:54:52;;;;;;;6.15;5.82;;;;;;;0.33;100.00;103045.06;6248577;23;20004;-67
2022/01/11 00:57:17;;;;;;;7.25;6.75;;;;;;;0.27;100.00;103047.47;6248285;23;20430;-66
2022/01/11 00:59:42;;;;;;;5.53;5.22;;;;;;;0.36;100.00;103043.44;6248947;23;20406;-67
2022/01/11 01:02:08;;;;;;;5.20;4.90;;;;;;;0.48;100.00;103046.44;6221549;23;20008;-67
2022/01/11 01:04:33;;;;;;;5.35;4.95;;;;;;;0.56;100.00;103038.84;6247978;23;20000;-67
2022/01/11 01:06:59;;;;;;;5.22;4.72;;;;;;;0.53;100.00;103041.38;6248381;23;20004;-68
2022/01/11 01:09:31;;;;;;;6.53;6.13;;;;;;;0.47;100.00;103041.19;6248503;23;20004;-67
2022/01/11 01:11:57;;;;;;;7.80;7.28;;;;;;;0.44;100.00;103048.91;6221543;23;20006;-68
2022/01/11 01:14:22;;;;;;;4.22;4.03;;;;;;;0.54;100.00;103028.34;6248054;23;20085;-67
2022/01/11 01:16:48;;;;;;;4.28;3.97;;;;;;;0.52;100.00;103029.16;6247926;23;20012;-67
2022/01/11 01:19:13;;;;;;;5.32;4.93;;;;;;;0.59;100.00;103029.41;6248405;23;20012;-67
2022/01/11 01:21:39;;;;;;;5.43;5.05;;;;;;;0.35;100.00;103031.19;6248319;23;20008;-67
2022/01/11 01:24:07;;;;;;;6.20;5.90;;;;;;;0.46;100.00;103034.19;6221287;23;20479;-66
2022/01/11 01:26:33;;;;;;;4.90;4.60;;;;;;;0.37;100.00;103028.63;6248267;23;20000;-66
2022/01/11 01:29:00;;;;;;;6.20;5.80;;;;;;;0.45;100.00;103030.66;6248730;23;20008;-67
2022/01/11 01:31:27;;;;;;;5.07;4.78;;;;;;;0.46;100.00;103040.28;6221318;23;20004;-67
2022/01/11 01:33:52;;;;;;;4.20;4.00;;;;;;;0.59;100.00;103032.00;6221421;23;20344;-66
2022/01/11 01:36:18;;;;;;;5.60;5.30;;;;;;;0.55;100.00;103037.09;6248018;23;20004;-66
2022/01/11 01:38:43;;;;;;;7.28;6.80;;;;;;;0.49;100.00;103040.38;6247922;23;20004;-67
2022/01/11 01:41:19;;;;;;;5.05;4.75;;;;;;;0.66;100.00;103051.41;6247897;23;20012;-67
2022/01/11 01:43:48;;;;;;;6.75;6.25;;;;;;;0.60;100.00;103043.38;6248509;23;20015;-67
2022/01/11 01:46:14;;;;;;;4.53;4.28;;;;;;;0.64;100.00;103050.47;6248230;23;20008;-67
2022/01/11 01:48:40;;;;;;;6.78;6.38;;;;;;;0.69;100.00;103046.28;6220744;23;20015;-67
2022/01/11 01:51:11;;;;;;;4.57;4.38;;;;;;;0.61;100.00;103046.03;6248365;23;20413;-67
2022/01/11 01:53:40;;;;;;;7.78;7.18;;;;;;;0.62;100.00;103045.19;6247702;23;20010;-67
2022/01/11 01:56:06;;;;;;;5.18;4.88;;;;;;;0.58;100.00;103045.03;6247693;23;20015;-68
2022/01/11 01:58:32;;;;;;;6.32;4.80;;;;;;;0.58;100.00;103051.16;6248336;23;20030;-67
2022/01/11 02:01:03;;;;;;;5.70;5.00;;;;;;;0.64;100.00;103055.69;6248173;23;20004;-67
2022/01/11 02:03:31;;;;;;;7.63;7.13;;;;;;;0.41;100.00;103047.06;6221862;23;20027;-67
2022/01/11 02:05:58;;;;;;;5.40;5.10;;;;;;;0.48;100.00;103048.16;6247923;23;20478;-67
2022/01/11 02:08:25;;;;;;;6.25;5.78;;;;;;;0.47;100.00;103046.41;6221057;23;20010;-67
2022/01/11 02:10:52;;;;;;;3.90;3.67;;;;;;;0.46;100.00;103044.63;6247394;23;20004;-67
2022/01/11 02:13:17;;;;;;;5.43;5.13;;;;;;;0.39;100.00;103048.78;6220519;23;20062;-68
2022/01/11 02:15:43;;;;;;;5.88;5.57;;;;;;;0.43;100.00;103048.03;6247479;23;20392;-68
2022/01/11 02:18:14;;;;;;;4.25;4.05;;;;;;;0.42;100.00;103046.25;6248136;23;20007;-67
2022/01/11 02:20:43;;;;;;;6.05;5.75;;;;;;;0.39;100.00;103051.38;6247822;23;20333;-67
2022/01/11 02:23:09;;;;;;;5.68;5.38;;;;;;;0.47;100.00;103044.69;6247620;23;20309;-68
2022/01/11 02:25:34;;;;;;;5.03;4.72;;;;;;;0.44;100.00;103047.16;6247810;23;20019;-67
2022/01/11 02:28:00;;;;;;;5.93;5.60;;;;;;;0.38;100.00;103046.09;6247741;23;20414;-68
2022/01/11 02:30:25;;;;;;;6.40;6.00;;;;;;;0.38;100.00;103053.94;6247215;23;20008;-67
2022/01/11 02:32:52;;;;;;;4.93;4.63;;;;;;;0.39;100.00;103058.31;6246993;23;20008;-67
2022/01/11 02:35:18;;;;;;;5.07;4.78;;;;;;;0.42;100.00;103061.94;6247376;23;20004;-67
2022/01/11 02:37:45;;;;;;;5.82;5.43;;;;;;;0.33;100.00;103048.53;6247748;23;20012;-67
2022/01/11 02:40:13;;;;;;;18.95;6.10;;;;;;;0.31;100.00;103049.34;6247304;23;20015;-68
2022/01/11 02:42:39;;;;;;;5.18;4.88;;;;;;;0.31;100.00;103039.78;6247691;23;20012;-68
2022/01/11 02:45:15;;;;;;;5.28;4.97;;;;;;;0.33;100.00;103053.75;6247709;23;20004;-68
2022/01/11 02:47:41;;;;;;;7.20;6.60;;;;;;;0.35;100.00;103044.25;6248131;23;20011;-67
2022/01/11 02:50:08;;;;;;;8.32;7.70;;;;;;;0.33;100.00;103043.31;6220325;23;20005;-67
2022/01/11 02:52:33;;;;;;;5.75;5.35;;;;;;;0.37;100.00;103050.44;6246695;23;20000;-67
2022/01/11 02:54:59;;;;;;;5.80;5.50;;;;;;;0.36;100.00;103055.63;6247418;23;20011;-68
2022/01/11 02:57:24;;;;;;;5.57;5.28;;;;;;;0.36;100.00;103050.38;6248809;23;20032;-68
2022/01/11 02:59:49;;;;;;;4.95;4.68;;;;;;;0.53;100.00;103049.22;6247173;23;20436;-67
2022/01/11 03:02:15;;;;;;;6.47;6.07;;;;;;;0.56;100.00;103049.31;6220530;23;20008;-67
2022/01/11 03:04:40;;;;;;;6.85;6.32;;;;;;;0.49;100.00;103056.06;6220533;23;20014;-68
2022/01/11 03:07:06;;;;;;;4.50;4.30;;;;;;;0.51;100.00;103053.50;6248045;23;20083;-67
2022/01/11 03:09:41;;;;;;;5.85;5.47;;;;;;;0.43;100.00;103055.88;6247013;23;20306;-67
2022/01/11 03:12:07;;;;;;;6.88;6.50;;;;;;;0.48;100.00;103056.00;6247754;23;20031;-68
2022/01/11 03:14:33;;;;;;;6.45;6.07;;;;;;;0.53;100.00;103059.66;6247577;23;20000;-67
2022/01/11 03:16:58;;;;;;;6.60;6.20;;;;;;;0.54;100.00;103072.78;6246932;23;20004;-67
2022/01/11 03:19:23;;;;;;;6.15;5.75;;;;;;;0.57;100.00;103069.41;6220106;23;20090;-67
2022/01/11 03:21:49;;;;;;;7.43;7.03;;;;;;;0.53;100.00;103078.88;6247233;23;20004;-67
2022/01/11 03:24:14;;;;;;;6.28;5.88;;;;;;;0.47;100.00;103083.00;6247555;23;20030;-67
2022/01/11 03:26:40;;;;;;;7.10;6.70;;;;;;;0.50;100.00;103085.72;6247088;23;20081;-68
2022/01/11 03:29:05;;;;;;;6.00;5.70;;;;;;;0.52;100.00;103087.53;6247479;23;20067;-67
2022/01/11 03:31:30;;;;;;;4.55;4.25;;;;;;;0.51;100.00;103091.00;6247068;23;19996;-67
2022/01/11 03:33:55;;;;;;;5.68;5.38;;;;;;;0.50;100.00;103077.88;6219756;23;20004;-68
2022/01/11 03:36:21;;;;;;;6.03;5.68;;;;;;;0.50;100.00;103077.88;6246813;23;20000;-67
2022/01/11 03:38:46;;;;;;;7.40;6.55;;;;;;;0.45;100.00;103074.22;6246573;23;20012;-67
2022/01/11 03:41:12;;;;;;;5.53;5.22;;;;;;;0.44;100.00;103072.44;6246720;23;20322;-68
2022/01/11 03:43:38;;;;;;;6.50;6.10;;;;;;;0.48;100.00;103074.31;6246939;23;20322;-68
2022/01/11 03:46:04;;;;;;;5.97;5.68;;;;;;;0.44;100.00;103067.22;6246940;23;20004;-68
2022/01/11 03:48:30;;;;;;;4.68;4.45;;;;;;;0.42;100.00;103063.66;6247243;23;20007;-68
2022/01/11 03:50:56;;;;;;;4.45;4.15;;;;;;;0.38;100.00;103062.66;6246954;23;20012;-67
2022/01/11 03:53:26;;;;;;;6.30;6.00;;;;;;;0.44;100.00;103056.75;6247019;23;20004;-68
2022/01/11 03:58:26;;;;;;;4.35;4.15;;;;;;;0.41;100.00;103062.75;6257224;23;20016;-68
2022/01/11 04:00:52;;;;;;;6.57;6.18;;;;;;;0.35;100.00;103056.47;6247656;23;20004;-67
2022/01/11 04:03:18;;;;;;;6.15;5.75;;;;;;;0.31;100.00;103065.00;6219989;23;20066;-68
2022/01/11 04:05:44;;;;;;;5.57;5.25;;;;;;;0.36;100.00;103051.28;6246859;23;20008;-68
2022/01/11 04:08:10;;;;;;;7.32;6.63;;;;;;;0.35;100.00;103053.84;6247701;23;20090;-67
2022/01/11 04:10:36;;;;;;;5.30;5.00;;;;;;;0.37;100.00;103050.44;6246895;23;20508;-67
2022/01/11 04:13:01;;;;;;;6.45;6.05;;;;;;;0.35;100.00;103054.72;6247382;23;20011;-68
2022/01/11 04:15:27;;;;;;;7.35;6.85;;;;;;;0.29;100.00;103056.22;6247325;23;20009;-67
2022/01/11 04:17:52;;;;;;;6.32;5.93;;;;;;;0.34;100.00;103054.66;6247499;23;20011;-67
2022/01/11 04:20:19;;;;;;;5.53;5.22;;;;;;;0.29;100.00;103072.81;6248264;23;20015;-68
2022/01/11 04:22:46;;;;;;;4.70;4.43;;;;;;;0.28;100.00;103064.91;6248847;23;20035;-67
2022/01/11 04:25:12;;;;;;;6.80;6.28;;;;;;;0.24;100.00;103063.03;6248877;23;20019;-68
2022/01/11 04:27:37;;;;;;;4.95;4.55;;;;;;;0.26;100.00;103050.91;6249152;23;20000;-67
2022/01/11 04:30:03;;;;;;;6.95;6.55;;;;;;;0.23;100.00;103058.63;6248855;23;20000;-68
2022/01/11 04:32:30;;;;;;;5.55;5.25;;;;;;;0.24;100.00;103063.03;6248746;23;20007;-68
2022/01/11 04:34:56;;;;;;;5.50;5.20;;;;;;;0.25;100.00;103064.81;6221271;23;20376;-68
2022/01/11 04:37:21;;;;;;;5.50;5.20;;;;;;;0.24;100.00;103070.88;6221945;23;20081;-68
2022/01/11 04:39:46;;;;;;;5.75;5.45;;;;;;;0.20;100.00;103077.72;6249025;23;20004;-67
2022/01/11 04:42:12;;;;;;;5.13;4.82;;;;;;;0.21;100.00;103078.59;6222088;23;20393;-67
2022/01/11 04:44:37;;;;;;;5.43;5.13;;;;;;;0.36;100.00;103079.13;6250426;23;20433;-68
2022/01/11 04:47:03;;;;;;;4.60;4.40;;;;;;;0.28;100.00;103071.03;6250360;23;20008;-67
2022/01/11 04:49:28;;;;;;;6.50;6.10;;;;;;;0.29;100.00;103078.03;6248985;23;20333;-68
2022/01/11 04:51:55;;;;;;;5.60;5.30;;;;;;;0.26;100.00;103079.63;6248864;23;20062;-67
2022/01/11 04:54:21;;;;;;;4.50;4.30;;;;;;;0.22;100.00;103077.78;6222105;23;20122;-66
2022/01/11 04:56:46;;;;;;;5.05;4.75;;;;;;;0.28;100.00;103077.97;6221885;23;20012;-66
2022/01/11 04:59:12;;;;;;;5.00;4.70;;;;;;;0.33;100.00;103068.56;6249326;23;20057;-66
2022/01/11 05:01:37;;;;;;;4.40;4.20;;;;;;;0.34;100.00;103076.47;6249214;23;20031;-66
2022/01/11 05:04:03;;;;;;;7.07;6.47;;;;;;;0.35;100.00;103079.97;6248329;23;20087;-67
2022/01/11 05:06:28;;;;;;;5.57;5.28;;;;;;;0.38;100.00;103067.88;6248347;23;20015;-67
2022/01/11 05:08:53;;;;;;;5.13;4.82;;;;;;;0.38;100.00;103074.84;6248845;23;20028;-67
2022/01/11 05:11:21;;;;;;;5.25;4.95;;;;;;;0.38;100.00;103074.84;6248741;23;20004;-67
2022/01/11 05:13:46;;;;;;;5.75;5.45;;;;;;;0.31;100.00;103070.25;6248489;23;20060;-66
2022/01/11 05:16:11;;;;;;;5.28;4.97;;;;;;;0.32;100.00;103072.00;6221459;23;20008;-67
2022/01/11 05:18:37;;;;;;;5.57;5.28;;;;;;;0.28;100.00;103076.25;6221540;23;20004;-67
2022/01/11 05:21:05;;;;;;;5.57;5.25;;;;;;;0.38;100.00;103082.69;6248091;23;20004;-67
2022/01/11 05:23:32;;;;;;;5.45;5.15;;;;;;;0.39;100.00;103077.53;6248684;23;20004;-67
2022/01/11 05:25:58;;;;;;;6.55;6.15;;;;;;;0.42;100.00;103074.09;6248946;23;20004;-67
2022/01/11 05:28:23;;;;;;;6.32;5.93;;;;;;;0.37;100.00;103081.78;6248170;23;20492;-67
2022/01/11 05:30:49;;;;;;;4.20;4.00;;;;;;;0.42;100.00;103074.09;6247747;23;20011;-66
2022/01/11 05:33:14;;;;;;;4.13;3.92;;;;;;;0.48;100.00;103079.53;6220890;23;20083;-67
2022/01/11 05:35:40;;;;;;;5.30;5.00;;;;;;;0.41;100.00;103086.28;6247979;23;20369;-66
2022/01/11 05:38:06;;;;;;;4.82;4.53;;;;;;;0.41;100.00;103081.06;6216270;23;20016;-67
2022/01/11 05:40:31;;;;;;;5.05;4.75;;;;;;;0.44;100.00;103093.34;6216330;23;20009;-67
2022/01/11 05:42:56;;;;;;;4.95;4.65;;;;;;;0.40;100.00;103092.34;6217728;23;20001;-66
2022/01/11 05:45:21;;;;;;;5.93;5.43;;;;;;;0.39;100.00;103097.53;6216718;23;20055;-66
2022/01/11 05:47:48;;;;;;;6.07;5.68;;;;;;;0.38;100.00;103087.94;6217428;23;20389;-67
2022/01/11 05:50:14;;;;;;;4.85;4.55;;;;;;;0.40;100.00;103094.97;6218438;23;20067;-68
2022/01/11 05:52:39;;;;;;;6.47;6.07;;;;;;;0.38;100.00;103098.38;6215511;23;20008;-67
2022/01/11 05:55:08;;;;;;;6.18;5.82;;;;;;;0.33;100.00;103097.31;6215010;23;20080;-66
2022/01/11 05:57:34;;;;;;;4.00;3.80;;;;;;;0.39;100.00;103097.53;6215110;23;20000;-66
2022/01/11 05:59:59;;;;;;;4.30;4.00;;;;;;;0.36;100.00;103097.44;6216889;23;20075;-66
2022/01/11 06:02:24;;;;;;;5.63;5.30;;;;;;;0.50;100.00;103096.19;6217415;23;20330;-67
2022/01/11 06:04:50;;;;;;;6.20;5.75;;;;;;;0.45;100.00;103092.50;6217246;23;20005;-67
2022/01/11 06:07:15;;;;;;;5.07;4.78;;;;;;;0.43;100.00;103094.16;6217623;23;20001;-69
2022/01/11 06:09:41;;;;;;;5.28;4.97;;;;;;;0.48;100.00;103097.84;6219020;23;20005;-68
2022/01/11 06:12:07;;;;;;;4.88;4.57;;;;;;;0.42;100.00;103093.31;6221120;23;20009;-69
2022/01/11 06:14:32;;;;;;;5.32;4.95;;;;;;;0.38;100.00;103087.94;6217292;23;20000;-67
2022/01/11 06:16:57;;;;;;;5.30;5.00;;;;;;;0.41;100.00;103093.25;6218304;23;20020;-68
2022/01/11 06:19:23;;;;;;;6.00;5.55;;;;;;;0.38;100.00;103087.94;6217844;23;20062;-67
2022/01/11 06:21:48;;;;;;;5.88;5.55;;;;;;;0.40;100.00;103091.47;6219553;23;20097;-69
2022/01/11 06:24:14;;;;;;;6.15;5.75;;;;;;;0.36;100.00;103086.97;6221211;23;20020;-78
2022/01/11 06:26:39;;;;;;;4.93;4.63;;;;;;;0.40;100.00;103100.19;6219636;23;20005;-66
2022/01/11 06:29:05;;;;;;;7.18;6.78;;;;;;;0.39;100.00;103107.97;6218456;23;20001;-67
2022/01/11 06:31:32;;;;;;;9.63;7.30;;;;;;;0.39;100.00;103097.53;6219444;23;20001;-66
2022/01/11 06:33:58;;;;;;;5.57;5.22;;;;;;;0.42;100.00;103102.88;6218804;23;20008;-67
2022/01/11 06:36:23;;;;;;;5.43;5.13;;;;;;;0.46;100.00;103113.47;6218614;23;20004;-66
2022/01/11 06:38:48;;;;;;;4.30;4.10;;;;;;;0.48;100.00;103106.56;6216730;23;20480;-67
2022/01/11 06:41:14;;;;;;;4.80;4.55;;;;;;;0.45;100.00;103110.81;6217039;23;20001;-67
2022/01/11 06:43:40;;;;;;;5.95;5.65;;;;;;;0.38;100.00;103112.31;6217958;23;20004;-67
2022/01/11 06:46:06;;;;;;;5.70;5.25;;;;;;;0.39;100.00;103115.81;6218369;23;20001;-67
2022/01/11 06:48:32;;;;;;;4.68;4.38;;;;;;;0.38;100.00;103121.91;6218227;23;20107;-68
2022/01/11 06:50:58;;;;;;;4.07;3.88;;;;;;;0.38;100.00;103119.28;6217994;23;20043;-67
2022/01/11 06:53:23;;;;;;;5.05;4.78;;;;;;;0.39;100.00;103121.06;6217777;23;19997;-67
2022/01/11 06:55:50;;;;;;;6.55;6.15;;;;;;;0.47;100.00;103114.38;6218431;23;20059;-67
2022/01/11 06:58:16;;;;;;;5.25;4.95;;;;;;;0.45;100.00;103116.94;6216890;23;20342;-67
2022/01/11 07:00:42;;;;;;;4.75;4.50;;;;;;;0.43;100.00;103121.22;6216368;23;20008;-67
2022/01/11 07:03:08;;;;;;;5.75;5.35;;;;;;;0.40;100.00;103123.72;6216729;23;20015;-68
2022/01/11 07:05:33;;;;;;;5.43;4.13;;;;;;;0.42;100.00;103136.84;6218628;23;20011;-67
2022/01/11 07:07:58;;;;;;;5.00;4.70;;;;;;;0.52;100.00;103146.78;6218613;23;20004;-67
2022/01/11 07:10:24;;;;;;;4.93;4.63;;;;;;;0.42;100.00;103148.19;6218346;23;20028;-67
2022/01/11 07:12:49;;;;;;;6.40;6.00;;;;;;;0.46;100.00;103141.34;6218445;23;20001;-67
2022/01/11 07:15:14;;;;;;;4.50;4.20;;;;;;;0.44;100.00;103132.56;6217795;23;20004;-68
2022/01/11 07:17:42;;;;;;;5.07;4.78;;;;;;;0.45;100.00;103142.16;6219528;23;20032;-69
2022/01/11 07:20:08;;;;;;;5.50;5.20;;;;;;;0.46;100.00;103152.69;6220780;23;20172;-71
2022/01/11 07:22:33;;;;;;;5.07;4.78;;;;;;;0.48;100.00;103147.50;6219500;23;20004;-67
2022/01/11 07:24:58;;;;;;;5.78;5.47;;;;;;;0.56;100.00;103156.50;6215717;23;20007;-68
2022/01/11 07:27:24;;;;;;;5.35;5.05;;;;;;;0.49;100.00;103159.75;6217500;23;20007;-67
2022/01/11 07:29:49;;;;;;;3.63;3.42;;;;;;;0.44;100.00;103156.09;6217545;23;20087;-69
2022/01/11 07:32:15;;;;;;;3.95;3.75;;;;;;;0.47;100.00;103167.56;6216829;23;20098;-69
2022/01/11 07:34:41;;;;;;;3.65;3.45;;;;;;;0.45;100.00;103171.81;6217875;23;20024;-69
2022/01/11 07:37:06;;;;;;;4.90;4.60;;;;;;;0.43;100.00;103177.81;6226788;23;20016;-67
2022/01/11 07:39:32;;;;;;;4.78;4.50;;;;;;;0.42;100.00;103178.66;6249103;23;20073;-68
2022/01/11 07:41:57;;;;;;;5.60;5.30;;;;;;;0.34;100.00;103180.09;6246976;23;20015;-68
2022/01/11 07:44:22;;;;;;;5.20;4.90;;;;;;;0.31;100.00;103182.63;6246857;23;20402;-68
2022/01/11 07:46:48;;;;;;;3.97;3.78;;;;;;;0.22;100.00;103184.91;6247487;23;20341;-68
2022/01/11 07:49:14;;;;;;;4.68;4.38;;;;;;;0.24;100.00;103188.47;6248664;23;20046;-67
2022/01/11 07:51:40;;;;;;;4.28;4.07;;;;;;;0.29;100.00;103186.88;6221327;23;19996;-67
2022/01/11 07:54:06;;;;;;;3.78;3.58;;;;;;;0.26;100.00;103182.47;6249272;23;20303;-67
2022/01/11 07:56:32;;;;;;;4.53;4.32;;;;;;;0.23;100.00;103184.06;6252218;23;20015;-67
2022/01/11 07:58:57;;;;;;;4.22;4.03;;;;;;;0.21;100.00;103194.47;6252401;23;20008;-68
2022/01/11 08:01:22;;;;;;;4.03;3.83;;;;;;;0.17;100.00;103195.19;6252065;23;20004;-68
2022/01/11 08:03:48;;;;;;;4.00;3.80;;;;;;;0.25;100.00;103200.69;6251858;23;20425;-68
2022/01/11 08:06:13;;;;;;;4.15;3.95;;;;;;;0.31;100.00;103207.03;6251883;23;20042;-68
2022/01/11 08:08:38;;;;;;;3.58;3.38;;;;;;;0.28;100.00;103195.56;6251856;23;20012;-67
2022/01/11 08:11:04;;;;;;;3.53;3.33;;;;;;;0.21;100.00;103199.69;6251603;23;20007;-67
2022/01/11 08:13:30;;;;;;;4.25;3.85;;;;;;;0.18;100.00;103190.84;6251601;23;20000;-68
2022/01/11 08:15:55;;;;;;;4.45;4.18;;;;;;;0.29;100.00;103187.78;6224747;23;20090;-67
2022/01/11 08:18:20;;;;;;;3.95;3.75;;;;;;;0.24;100.00;103197.19;6251544;23;20007;-67
2022/01/11 08:20:47;;;;;;;4.18;3.97;;;;;;;0.33;100.00;103204.47;6251343;23;20000;-67
2022/01/11 08:23:12;;;;;;;3.40;3.20;;;;;;;0.27;100.00;103199.91;6225190;23;20000;-68
2022/01/11 08:25:38;;;;;;;4.30;4.00;;;;;;;0.28;100.00;103203.41;6251823;23;20154;-67
2022/01/11 08:28:04;;;;;;;5.03;4.72;;;;;;;0.31;100.00;103211.38;6251961;23;20004;-67
2022/01/11 08:30:30;;;;;;;4.07;3.88;;;;;;;0.30;100.00;103214.81;6251922;23;20000;-67
2022/01/11 08:32:55;;;;;;;4.47;4.18;;;;;;;0.29;100.00;103219.16;6251778;23;20054;-68
2022/01/11 08:35:21;;;;;;;3.50;3.30;;;;;;;0.34;100.00;103212.38;6224760;23;20039;-67
2022/01/11 08:37:46;;;;;;;4.03;3.83;;;;;;;0.35;100.00;103214.13;6251506;23;20016;-67
2022/01/11 08:40:13;;;;;;;3.83;3.63;;;;;;;0.34;100.00;103217.59;6251905;23;20004;-67
2022/01/11 08:42:38;;;;;;;4.65;4.35;;;;;;;0.40;100.00;103211.69;6251945;23;20422;-67
2022/01/11 08:45:04;;;;;;;3.90;3.70;;;;;;;0.43;100.00;103211.78;6224935;23;20004;-67
2022/01/11 08:47:30;;;;;;;4.15;3.95;;;;;;;0.49;100.00;103206.81;6251889;23;20008;-68
2022/01/11 08:50:00;;;;;;;3.65;3.45;;;;;;;0.51;100.00;103216.47;6251618;23;20011;-68
2022/01/11 08:52:26;;;;;;;4.18;3.88;;;;;;;0.51;100.00;103216.47;6225368;23;20007;-68
2022/01/11 08:54:52;;;;;;;3.60;3.40;;;;;;;0.53;100.00;103216.53;6251417;23;20061;-68
2022/01/11 08:57:19;;;;;;;3.85;3.65;;;;;;;0.60;100.00;103229.00;6251642;23;20000;-68
2022/01/11 08:59:45;;;;;;;4.55;4.25;;;;;;;0.64;100.00;103220.41;6224697;23;20019;-67
2022/01/11 09:02:12;;;;;;;4.07;3.88;;;;;;;0.62;100.00;103216.84;6251307;23;20012;-68
2022/01/11 09:04:37;;;;;;;3.58;3.38;;;;;;;0.65;100.00;103211.72;6224967;23;20087;-68
2022/01/11 09:07:03;;;;;;;3.70;3.50;;;;;;;0.69;100.00;103225.00;6250578;23;20011;-68
2022/01/11 09:09:31;;;;;;;3.13;2.92;;;;;;;0.71;100.00;103225.03;6249894;23;20138;-67
2022/01/11 09:11:57;;;;;;;3.50;3.30;;;;;;;0.81;100.00;103221.88;6249776;23;20604;-67
2022/01/11 09:14:23;;;;;;;3.53;3.33;;;;;;;0.66;100.00;103227.47;6223019;23;20020;-67
2022/01/11 09:16:49;;;;;;;4.45;4.18;;;;;;;0.65;100.00;103227.41;6249845;23;20030;-67
2022/01/11 09:19:16;;;;;;;4.45;4.25;;;;;;;0.68;100.00;103236.25;6249581;23;20113;-67
2022/01/11 09:21:42;;;;;;;4.55;4.25;;;;;;;0.72;100.00;103232.94;6249813;23;20058;-68
2022/01/11 09:24:09;;;;;;;3.58;3.38;;;;;;;0.74;100.00;103241.72;6250221;23;20079;-67
2022/01/11 09:26:34;;;;;;;3.50;3.30;;;;;;;0.63;100.00;103234.34;6250341;23;20035;-67
2022/01/11 09:29:00;;;;;;;3.35;3.15;;;;;;;0.64;100.00;103238.72;6250096;23;20476;-67
2022/01/11 09:31:25;;;;;;;3.90;3.70;;;;;;;0.60;100.00;103237.72;6250326;23;20004;-68
2022/01/11 09:33:51;;;;;;;3.65;3.45;;;;;;;0.69;100.00;103245.00;6250347;23;20062;-68
2022/01/11 09:36:16;;;;;;;3.58;3.38;;;;;;;0.76;100.00;103244.38;6249906;23;20432;-68
2022/01/11 09:38:42;;;;;;;3.22;3.03;;;;;;;0.72;100.00;103243.41;6250231;23;20062;-68
2022/01/11 09:41:07;;;;;;;3.40;3.20;;;;;;;0.78;100.00;103245.31;6223305;23;20004;-67
2022/01/11 09:43:33;;;;;;;4.60;4.32;;;;;;;0.81;100.00;103248.03;6249636;23;20004;-67
2022/01/11 09:45:58;;;;;;;4.05;3.85;;;;;;;0.83;100.00;103243.78;6250228;23;20000;-67
2022/01/11 09:48:26;;;;;;;3.47;3.28;;;;;;;0.83;100.00;103249.00;6222988;23;20015;-67
2022/01/11 09:50:52;;;;;;;3.30;3.10;;;;;;;0.83;100.00;103251.63;6249374;23;20008;-67
2022/01/11 09:53:17;;;;;;;4.30;4.03;;;;;;;0.81;100.00;103251.56;6222557;23;20000;-67
2022/01/11 09:55:44;;;;;;;3.53;3.33;;;;;;;0.82;100.00;103260.31;6249768;23;20448;-66
2022/01/11 09:58:11;;;;;;;4.18;3.97;;;;;;;0.78;100.00;103253.19;6249677;23;20035;-68
2022/01/11 10:00:37;;;;;;;3.55;3.35;;;;;;;0.81;100.00;103255.91;6249100;23;20012;-68
2022/01/11 10:03:04;;;;;;;5.93;5.32;;;;;;;0.82;100.00;103257.69;6222044;23;20451;-67
2022/01/11 10:05:30;;;;;;;3.75;3.55;;;;;;;0.84;100.00;103258.63;6249648;23;20083;-68
2022/01/11 10:07:55;;;;;;;5.30;5.00;;;;;;;0.83;100.00;103254.22;6249023;23;20066;-67
2022/01/11 10:10:23;;;;;;;4.10;3.90;;;;;;;0.91;100.00;103244.94;6248837;23;20008;-67
2022/01/11 10:12:48;;;;;;;4.70;4.40;;;;;;;0.85;100.00;103245.59;6221987;23;20000;-67
2022/01/11 10:15:14;;;;;;;4.13;3.92;;;;;;;0.91;100.00;103239.69;6248986;23;20079;-68
2022/01/11 10:17:42;;;;;;;4.90;4.60;;;;;;;0.98;100.00;103236.44;6249179;23;20107;-67
2022/01/11 10:20:12;;;;;;;4.40;4.10;;;;;;;1.01;100.00;103247.91;6249489;23;20004;-67
2022/01/11 10:22:51;;;;;;;;;;;;;;;1.05;100.00;103247.19;6222829;23;20004;-68
2022/01/11 10:25:18;;;;;;;4.43;4.22;;;;;;;1.07;100.00;103242.00;6249749;23;19939;-67
2022/01/11 10:27:44;;;;;;;5.28;4.97;;;;;;;1.09;100.00;103245.53;6222338;23;20012;-67
2022/01/11 10:30:17;;;;;;;3.78;3.58;;;;;;;1.11;100.00;103256.97;6248919;23;20000;-67
2022/01/11 10:32:45;;;;;;;4.15;3.95;;;;;;;1.22;100.00;103253.88;6221877;23;20004;-67
2022/01/11 10:35:18;;;;;;;3.95;3.75;;;;;;;1.18;100.00;103258.97;6248640;23;20011;-68
2022/01/11 10:37:48;;;;;;;4.38;4.18;;;;;;;1.18;100.00;103266.81;6249061;23;20345;-67
2022/01/11 10:40:26;;;;;;;4.15;3.95;;;;;;;1.21;100.00;103274.75;6248655;23;20036;-67
2022/01/11 10:42:56;;;;;;;4.22;3.92;;;;;;;1.20;100.00;103275.59;6248638;23;20441;-68
2022/01/11 10:45:25;;;;;;;4.18;3.97;;;;;;;1.30;100.00;103282.91;6249103;23;20071;-68
2022/01/11 10:47:57;;;;;;;3.72;3.53;;;;;;;1.27;100.00;103278.50;6248954;23;20008;-68
2022/01/11 10:50:30;;;;;;;4.03;3.83;;;;;;;1.33;100.00;103276.06;6249316;23;20088;-67
2022/01/11 10:53:01;;;;;;;4.13;3.90;;;;;;;1.47;100.00;103276.50;6249033;23;20000;-67
2022/01/11 10:55:29;;;;;;;3.83;3.63;;;;;;;1.56;100.00;103282.03;6223055;23;20000;-67
2022/01/11 10:57:58;;;;;;;3.65;3.45;;;;;;;1.71;100.00;103282.56;6252912;23;20117;-67
2022/01/11 11:00:31;;;;;;;4.53;4.22;;;;;;;1.73;100.00;103283.50;6248827;23;20004;-67
2022/01/11 11:02:57;;;;;;;4.00;3.80;;;;;;;1.83;100.00;103282.94;6250467;23;20031;-67
2022/01/11 11:05:25;;;;;;;4.93;4.63;;;;;;;1.94;100.00;103276.31;6248819;23;20368;-67
2022/01/11 11:08:09;;;;;;;4.80;4.60;;;;;;;2.01;100.00;103267.78;6249432;23;20079;-67
2022/01/11 11:10:34;;;;;;;5.80;5.50;;;;;;;2.20;100.00;103262.28;6249393;23;20039;-68
2022/01/11 11:13:01;;;;;;;5.20;4.90;;;;;;;2.21;100.00;103264.03;6248925;23;20007;-67
2022/01/11 11:15:32;;;;;;;5.35;4.85;;;;;;;2.24;100.00;103265.88;6222672;23;20004;-67
2022/01/11 11:17:57;;;;;;;5.35;5.03;;;;;;;2.36;100.00;103267.13;6222113;23;20015;-67
2022/01/11 11:20:24;;;;;;;5.15;4.85;;;;;;;2.44;100.00;103269.97;6249135;23;20405;-67
2022/01/11 11:22:50;;;;;;;5.60;5.30;;;;;;;2.47;100.00;103270.94;6249581;23;20000;-67
2022/01/11 11:25:15;;;;;;;6.72;6.32;;;;;;;2.53;100.00;103278.09;6248726;23;20432;-67
2022/01/11 11:27:41;;;;;;;5.03;4.65;;;;;;;2.53;100.00;103275.47;6222131;23;20008;-67